Flight Track Log - Related Links

Times and Time Zones

All times are in EDT time to prevent confusion due to time zone crossing. See the TCF6008 flight status page for this flight to view local times or setup timezone preferences in your user account.

Time Position Orientation Groundspeed Altitude Reporting Facility
EDT Latitude Longitude Course Direction KTS MPH feet Rate Location/Type
Tue 07:59:10 PM 42.9667 -87.9000 200° South 141 162 1,500  Level KMKE
Tue 08:00:38 PM 42.9694 -87.8306 87° East 246 283 3,900 1,760 Climbing Chicago Center
Tue 08:01:40 PM 42.9042 -87.8136 169° South 237 273 5,900 2,780 Climbing Chicago Center
Tue 08:02:00 PM 42.8893 -87.2741 185° South  Level Estimated
Tue 08:02:41 PM 42.8131 -87.8011 174° South 275 316 9,600  Level Chicago Center
Tue 08:03:00 PM 42.8744 -87.1186 180° South  Level Estimated
Tue 08:03:43 PM 42.7389 -87.7794 168° South 273 314 12,600  Level Chicago Center
Tue 08:04:00 PM 42.8593 -86.9631 200° South  Level Estimated
Tue 08:04:45 PM 42.6617 -87.7575 168° South 281 323 15,300  Level Chicago Center
Tue 08:05:47 PM 42.5789 -87.7228 163° South 320 368 16,100 1,258 Climbing Chicago Center
Tue 08:06:49 PM 42.4839 -87.6639 155° Southeast 373 429 17,900 1,805 Climbing Chicago Center
Tue 08:07:50 PM 42.4244 -87.5250 120° Southeast 425 489 19,800 1,951 Climbing Chicago Center
Tue 08:08:52 PM 42.3619 -87.3461 115° Southeast 439 505 21,900 1,694 Climbing Chicago Center
Tue 08:09:54 PM 42.3064 -87.1900 116° Southeast 457 526 23,300 1,452 Climbing Chicago Center
Tue 08:10:56 PM 42.2489 -87.0289 116° Southeast 472 543 24,900 1,403 Climbing Chicago Center
Tue 08:11:58 PM 42.1914 -86.8661 115° Southeast 480 552 26,200 1,258 Climbing Chicago Center
Tue 08:13:00 PM 42.1331 -86.7036 116° Southeast 482 555 27,500 1,024 Climbing Chicago Center
Tue 08:14:01 PM 42.0769 -86.5458 116° Southeast 487 560 28,300 732 Climbing Chicago Center
Tue 08:15:03 PM 42.0019 -86.3442 117° Southeast 500 575 29,000 339 Climbing Chicago Center
Tue 08:16:05 PM 41.9531 -86.1689 111° Southeast 510 587 29,000  Level Chicago Center
Tue 08:17:07 PM 41.9328 -85.9764 98° East 522 601 29,000  Level Chicago Center
Tue 08:18:09 PM 41.9147 -85.7817 97° East 524 603 29,000  Level Chicago Center
Tue 08:19:10 PM 41.8961 -85.5839 97° East 529 609 29,000  Level Chicago Center
Tue 08:20:12 PM 41.8781 -85.3875 97° East 526 605 29,000  Level Chicago Center
Tue 08:21:14 PM 41.8578 -85.1939 98° East 517 595 29,000  Level Chicago Center
Tue 08:22:02 PM 41.8444 -85.0322 96° East 512 589 29,000  Level Cleveland Center
Tue 08:23:02 PM 41.8244 -84.8414 98° East 512 589 29,000  Level Cleveland Center
Tue 08:24:02 PM 41.8022 -84.6533 99° East 512 589 29,000  Level Cleveland Center
Tue 08:25:02 PM 41.7817 -84.4597 98° East 512 589 29,000  Level Cleveland Center
Tue 08:26:02 PM 41.7658 -84.2497 96° East 512 589 29,000  Level Cleveland Center
Tue 08:27:02 PM 41.7531 -84.0569 95° East 512 589 29,000  Level Cleveland Center
Tue 08:28:02 PM 41.7400 -83.8642 95° East 512 589 29,000  Level Cleveland Center
Tue 08:29:02 PM 41.7264 -83.6772 96° East 517 595 29,000 350 Level Cleveland Center
Tue 08:30:02 PM 41.7128 -83.4817 95° East 517 595 29,700 950 Climbing Cleveland Center
Tue 08:31:02 PM 41.6986 -83.2919 96° East 517 595 30,900 650 Climbing Cleveland Center
Tue 08:32:02 PM 41.6864 -83.0994 95° East 522 601 31,000 50 Climbing Cleveland Center
Tue 08:33:02 PM 41.6717 -82.9072 96° East 522 601 31,000  Level Cleveland Center
Tue 08:34:02 PM 41.6567 -82.7175 96° East 522 601 31,000  Level Cleveland Center
Tue 08:35:02 PM 41.6433 -82.5283 95° East 522 601 31,000  Level Cleveland Center
Tue 08:36:02 PM 41.6297 -82.3417 96° East 522 601 31,000  Level Cleveland Center
Tue 08:37:02 PM 41.6136 -82.1522 96° East 517 595 31,000  Level Cleveland Center
Tue 08:38:02 PM 41.5992 -81.9686 96° East 510 587 31,000  Level Cleveland Center
Tue 08:39:02 PM 41.5844 -81.7964 96° East 510 587 31,000  Level Cleveland Center
Tue 08:40:02 PM 41.5675 -81.6100 97° East 505 581 31,000  Level Cleveland Center
Tue 08:41:02 PM 41.5503 -81.4239 97° East 505 581 31,000  Level Cleveland Center
Tue 08:42:02 PM 41.5350 -81.2378 96° East 500 575 31,000  Level Cleveland Center
Tue 08:43:02 PM 41.5150 -81.0325 97° East 501 577 31,000  Level Cleveland Center
Tue 08:44:02 PM 41.4989 -80.8436 96° East 501 577 31,000  Level Cleveland Center
Tue 08:45:02 PM 41.4806 -80.6636 98° East 501 577 31,000  Level Cleveland Center
Tue 08:46:02 PM 41.4264 -80.4972 113° Southeast 494 568 31,000  Level Cleveland Center
Tue 08:47:02 PM 41.3239 -80.3731 138° Southeast 481 554 31,000  Level Cleveland Center
Tue 08:48:02 PM 41.2383 -80.2600 135° Southeast 481 554 31,000  Level Cleveland Center
Tue 08:49:02 PM 41.1856 -80.0947 113° Southeast 481 554 31,000  Level Cleveland Center
Tue 08:50:02 PM 41.1889 -79.9100 89° East 463 533 31,000  Level Cleveland Center
Tue 08:51:02 PM 41.1917 -79.7222 89° East 483 556 31,000  Level Cleveland Center
Tue 08:52:02 PM 41.1964 -79.5372 88° East 488 562 31,000  Level Cleveland Center
Tue 08:53:02 PM 41.2008 -79.3494 88° East 499 574 31,000  Level Cleveland Center
Tue 08:54:02 PM 41.2028 -79.1647 89° East 499 574 31,000  Level Cleveland Center
Tue 08:55:02 PM 41.2044 -78.9769 89° East 499 574 31,000  Level Cleveland Center
Tue 08:56:02 PM 41.2103 -78.7947 88° East 494 568 31,000  Level Cleveland Center
Tue 08:57:02 PM 41.2114 -78.6094 89° East 494 568 31,000  Level Cleveland Center
Tue 08:59:02 PM 41.2150 -78.2158 89° East 508 585 31,000  Level New York Center
Tue 09:00:03 PM 41.2014 -78.0322 96° East 508 585 31,000  Level New York Center
Tue 09:01:03 PM 41.1772 -77.8475 100° East 503 579 31,000  Level New York Center
Tue 09:02:05 PM 41.1544 -77.6661 99° East 503 579 31,000 -400 Level New York Center
Tue 09:03:03 PM 41.1297 -77.4817 100° East 508 585 30,200 -1,311 Descending New York Center
Tue 09:04:04 PM 41.1067 -77.2975 99° East 508 585 28,400 -1,721 Descending New York Center
Tue 09:05:05 PM 41.0828 -77.1192 100° East 508 585 26,700 -1,714 Descending New York Center
Tue 09:06:03 PM 41.0586 -76.9489 101° East 487 560 25,000 -1,424 Descending New York Center
Tue 09:07:03 PM 41.0394 -76.7958 99° East 458 527 23,900 -1,400 Descending New York Center
Tue 09:08:03 PM 41.0172 -76.6536 102° East 415 478 22,200 -1,500 Descending New York Center
Tue 09:09:03 PM 40.9864 -76.5217 107° East 391 450 20,900 -1,140 Descending New York Center
Tue 09:10:04 PM 40.9622 -76.4178 107° East 378 435 19,900 -1,289 Descending New York Center
Tue 09:11:04 PM 40.9258 -76.2611 107° East 371 427 18,300 -1,488 Descending New York Center
Tue 09:12:05 PM 40.8942 -76.1322 108° East 371 427 16,900 -1,373 Descending New York Center
Tue 09:13:02 PM 40.8658 -76.0175 108° East 371 427 15,600 -1,261 Descending New York Center
Tue 09:14:04 PM 40.8361 -75.8892 107° East 371 427 14,400 -1,268 Descending New York Center
Tue 09:15:05 PM 40.8022 -75.7550 108° East 357 411 13,000 -694 Descending New York Center
Tue 09:16:05 PM 40.7700 -75.6319 109° East 350 403 13,000  Level New York Center
Tue 09:17:03 PM 40.7414 -75.5122 107° East 350 403 13,000  Level New York Center
Tue 09:18:04 PM 40.7186 -75.4039 105° East 350 403 13,000  Level New York Center
Tue 09:19:03 PM 40.6886 -75.2675 106° East 350 403 13,000 -250 Level New York Center
Tue 09:20:04 PM 40.6617 -75.1483 107° East 344 396 12,500 -1,131 Descending New York Center
Tue 09:21:05 PM 40.6044 -75.0653 132° Southeast 339 390 10,700 -1,240 Descending New York Center
Tue 09:22:05 PM 40.5578 -74.9694 123° Southeast 325 374 10,000 -359 Descending New York Center
Tue 09:23:02 PM 40.5281 -74.8694 111° Southeast 277 319 10,000  Level New York Center
Tue 09:23:22 PM 40.5167 -74.8333 113° Southeast 259 298 10,000  Level New York TRACON
Tue 09:25:04 PM 40.4558 -74.7233 126° Southeast 253 291 10,000 -200 Level New York Center
Tue 09:25:22 PM 40.4333 -74.7000 142° Southeast 236 272 9,600 -504 Descending New York TRACON
Tue 09:27:03 PM 40.3636 -74.6172 138° Southeast 222 255 9,000 -222 Descending New York Center
Tue 09:28:04 PM 40.3172 -74.5656 140° Southeast 222 255 9,000  Level New York Center
Tue 09:29:04 PM 40.2669 -74.5056 138° Southeast 228 262 9,000  Level New York Center
Tue 09:29:23 PM 40.2500 -74.4833 135° Southeast 220 253 9,000 -152 Level New York TRACON
Tue 09:30:23 PM 40.2500 -74.4167 90° East 208 239 8,800 -755 Descending New York TRACON
Tue 09:32:02 PM 40.2972 -74.3386 52° Northeast 176 203 7,000 -675 Descending New York Center
Tue 09:33:03 PM 40.3344 -74.2778 51° Northeast 190 219 7,000  Level New York Center
Tue 09:34:03 PM 40.3631 -74.2331 50° Northeast 190 219 7,000  Level New York Center
Tue 09:34:23 PM 40.3833 -74.2167 32° Northeast 188 216 7,000 -75 Level New York TRACON
Tue 09:35:23 PM 40.4167 -74.1667 49° Northeast 187 215 6,900 -650 Descending New York TRACON
Tue 09:36:23 PM 40.4667 -74.1333 27° Northeast 182 209 5,700 -862 Descending New York TRACON
Tue 09:38:24 PM 40.5500 -74.0667 31° Northeast 182 209 4,300 -622 Descending New York TRACON
Tue 09:40:24 PM 40.6167 -74.0000 37° Northeast 148 170 3,200 -550 Descending New York TRACON

Login

Don't have an account? Register now (free) for customized features, flight alerts, and more!